Koyo — JD2279 — position and weather

sailwx.info

Track history (hours):
 
Tides and Currents Weather Stations Pressure Air Temp Water Temp Dewpoint Dewpoint Depression Visibility Wind Speed Wind Dir Waves Ship Positions

Koyo

Last reported at 2016-Sep-26 02:16 UTC. Time now 2016-Sep-26 05:26 UTC.
Position N 34°38' E 135°25'.

Length 80 m; draft 3.7 m.

Type: Cargo ship. MMSI: 431301812.

Date/timePositionNaut miles runAvg speedWind from/ knotsBaromVisibWave heightAir tempDewpointWater temp
2016-Sep-26 02:16N 34°38' E 135°25'0 0.0
2016-Sep-26 01:28N 34°38' E 135°25'6 6.2
2016-Sep-26 00:33N 34°37' E 135°18'6 1.9
2016-Sep-25 21:27N 34°41' E 135°13'0 0.0
2016-Sep-25 17:27N 34°41' E 135°13'0 0.0
2016-Sep-25 16:33N 34°41' E 135°13'0 0.0
2016-Sep-25 15:33N 34°41' E 135°13'0 0.0
2016-Sep-25 14:27N 34°41' E 135°13'0 0.0
2016-Sep-25 12:27N 34°41' E 135°13'0 0.0
2016-Sep-25 11:33N 34°41' E 135°13'0 0.0
2016-Sep-25 10:33N 34°41' E 135°13'0 0.0
2016-Sep-25 09:33N 34°41' E 135°13'0 0.0
2016-Sep-25 07:33N 34°41' E 135°13'0 0.0
2016-Sep-25 04:33N 34°41' E 135°13'2 0.6
2016-Sep-25 00:34N 34°40' E 135°15'1 0.0
2016-Sep-23 06:33N 34°39' E 135°15'0 0.2
2016-Sep-23 04:33N 34°39' E 135°15'1 0.7
2016-Sep-23 03:33N 34°39' E 135°15'0 0.1
2016-Sep-23 02:33N 34°39' E 135°15'0 0.1
2016-Sep-23 01:33N 34°39' E 135°15'0 0.1
2016-Sep-23 00:33N 34°39' E 135°15'2 1.7
2016-Sep-22 23:29N 34°40' E 135°14'12 4.1
2016-Sep-22 20:30N 34°37' E 134°59'3 0.1
2016-Sep-21 09:19N 34°36' E 134°56'7 9.5
2016-Sep-21 08:33N 34°36' E 135°04'17 5.7
2016-Sep-21 05:33N 34°37' E 135°25'9 4.5
2016-Sep-21 03:33N 34°40' E 135°14'0 0.2
2016-Sep-21 02:33N 34°39' E 135°15'2 0.3
2016-Sep-20 17:29N 34°41' E 135°13'0 0.0
2016-Sep-20 14:29N 34°41' E 135°13'0 0.0
2016-Sep-20 13:29N 34°41' E 135°13'0 0.0
2016-Sep-20 10:23N 34°41' E 135°13'0 0.0
2016-Sep-20 08:29N 34°41' E 135°13'0 0.0
2016-Sep-20 07:23N 34°41' E 135°13'0 0.0
2016-Sep-20 06:29N 34°41' E 135°13'0 0.0
2016-Sep-20 02:29N 34°41' E 135°13'0 0.0
2016-Sep-19 23:23N 34°41' E 135°13'2 0.1
2016-Sep-18 02:24N 34°39' E 135°15'0 0.0
2016-Sep-18 01:30N 34°39' E 135°15'0 0.0
2016-Sep-18 00:30N 34°39' E 135°15'1 0.4
2016-Sep-17 22:31N 34°39' E 135°15'0 0.0
2016-Sep-17 21:31N 34°39' E 135°15'0 0.0
2016-Sep-17 20:31N 34°39' E 135°15'0 0.1
2016-Sep-17 19:13N 34°39' E 135°15'17 0.6
2016-Sep-16 15:33N 34°36' E 134°55'17 5.4
2016-Sep-16 12:29N 34°40' E 135°14'0 0.1
2016-Sep-16 09:33N 34°39' E 135°15'2612.4
2016-Sep-16 07:29N 34°17' E 134°59'18 4.7
2016-Sep-16 03:33N 34°30' E 135°15'11 9.2
2016-Sep-16 02:20N 34°38' E 135°25'  
Track history (hours):
 
Tides and Currents Weather Stations Pressure Air Temp Water Temp Dewpoint Dewpoint Depression Visibility Wind Speed Wind Dir Waves Ship Positions

Koyo

Last reported at 2016-Sep-26 02:16 UTC. Time now 2016-Sep-26 05:26 UTC.
Position N 34°38' E 135°25'.

Length 80 m; draft 3.7 m.

Type: Cargo ship. MMSI: 431301812.

Date/timePositionNaut miles runAvg speedWind from/ knotsBaromVisibWave heightAir tempDewpointWater temp
2016-Sep-26 02:16N 34°38' E 135°25'0 0.0
2016-Sep-26 01:28N 34°38' E 135°25'6 6.2
2016-Sep-26 00:33N 34°37' E 135°18'6 1.9
2016-Sep-25 21:27N 34°41' E 135°13'0 0.0
2016-Sep-25 17:27N 34°41' E 135°13'0 0.0
2016-Sep-25 16:33N 34°41' E 135°13'0 0.0
2016-Sep-25 15:33N 34°41' E 135°13'0 0.0
2016-Sep-25 14:27N 34°41' E 135°13'0 0.0
2016-Sep-25 12:27N 34°41' E 135°13'0 0.0
2016-Sep-25 11:33N 34°41' E 135°13'0 0.0
2016-Sep-25 10:33N 34°41' E 135°13'0 0.0
2016-Sep-25 09:33N 34°41' E 135°13'0 0.0
2016-Sep-25 07:33N 34°41' E 135°13'0 0.0
2016-Sep-25 04:33N 34°41' E 135°13'2 0.6
2016-Sep-25 00:34N 34°40' E 135°15'1 0.0
2016-Sep-23 06:33N 34°39' E 135°15'0 0.2
2016-Sep-23 04:33N 34°39' E 135°15'1 0.7
2016-Sep-23 03:33N 34°39' E 135°15'0 0.1
2016-Sep-23 02:33N 34°39' E 135°15'0 0.1
2016-Sep-23 01:33N 34°39' E 135°15'0 0.1
2016-Sep-23 00:33N 34°39' E 135°15'2 1.7
2016-Sep-22 23:29N 34°40' E 135°14'12 4.1
2016-Sep-22 20:30N 34°37' E 134°59'3 0.1
2016-Sep-21 09:19N 34°36' E 134°56'7 9.5
2016-Sep-21 08:33N 34°36' E 135°04'17 5.7
2016-Sep-21 05:33N 34°37' E 135°25'9 4.5
2016-Sep-21 03:33N 34°40' E 135°14'0 0.2
2016-Sep-21 02:33N 34°39' E 135°15'2 0.3
2016-Sep-20 17:29N 34°41' E 135°13'0 0.0
2016-Sep-20 14:29N 34°41' E 135°13'0 0.0
2016-Sep-20 13:29N 34°41' E 135°13'0 0.0
2016-Sep-20 10:23N 34°41' E 135°13'0 0.0
2016-Sep-20 08:29N 34°41' E 135°13'0 0.0
2016-Sep-20 07:23N 34°41' E 135°13'0 0.0
2016-Sep-20 06:29N 34°41' E 135°13'0 0.0
2016-Sep-20 02:29N 34°41' E 135°13'0 0.0
2016-Sep-19 23:23N 34°41' E 135°13'2 0.1
2016-Sep-18 02:24N 34°39' E 135°15'0 0.0
2016-Sep-18 01:30N 34°39' E 135°15'0 0.0
2016-Sep-18 00:30N 34°39' E 135°15'1 0.4
2016-Sep-17 22:31N 34°39' E 135°15'0 0.0
2016-Sep-17 21:31N 34°39' E 135°15'0 0.0
2016-Sep-17 20:31N 34°39' E 135°15'0 0.1
2016-Sep-17 19:13N 34°39' E 135°15'17 0.6
2016-Sep-16 15:33N 34°36' E 134°55'17 5.4
2016-Sep-16 12:29N 34°40' E 135°14'0 0.1
2016-Sep-16 09:33N 34°39' E 135°15'2612.4
2016-Sep-16 07:29N 34°17' E 134°59'18 4.7
2016-Sep-16 03:33N 34°30' E 135°15'11 9.2
2016-Sep-16 02:20N 34°38' E 135°25'  

Dump ship's entire track history